createdAt,value
2019-02-28T00:00:57.447Z,33.38
2019-02-28T00:03:28.566Z,36.30
2019-02-28T00:05:59.613Z,38.40
2019-02-28T00:08:30.696Z,34.45
2019-02-28T00:11:02.033Z,38.08
2019-02-28T00:13:35.555Z,39.90
2019-02-28T00:16:06.755Z,30.75
2019-02-28T00:18:37.845Z,32.58
2019-02-28T00:21:08.968Z,24.85
2019-02-28T00:23:40.113Z,36.35
2019-02-28T00:26:11.745Z,34.83
2019-02-28T00:28:43.441Z,33.00
2019-02-28T00:31:15.367Z,39.48
2019-02-28T00:33:46.526Z,35.70
2019-02-28T00:36:19.290Z,40.80
2019-02-28T00:38:50.266Z,38.38
2019-02-28T00:41:21.290Z,37.78
2019-02-28T00:43:52.469Z,37.53
2019-02-28T00:46:23.599Z,39.48
2019-02-28T00:48:54.703Z,38.73
2019-02-28T00:51:25.654Z,41.92
2019-02-28T00:53:56.729Z,40.35
2019-02-28T00:56:28.566Z,37.65
2019-02-28T00:59:00.480Z,34.08
2019-02-28T01:01:32.357Z,37.70
2019-02-28T01:04:03.413Z,38.15
2019-02-28T01:06:34.470Z,39.03
2019-02-28T01:09:07.230Z,41.90
2019-02-28T01:11:39.836Z,38.42
2019-02-28T01:14:10.909Z,40.75
2019-02-28T01:16:41.955Z,43.73
2019-02-28T01:19:13.113Z,42.75
2019-02-28T01:21:44.062Z,46.73
2019-02-28T01:24:15.046Z,42.10
2019-02-28T01:26:46.682Z,44.48
2019-02-28T01:29:18.462Z,45.05
2019-02-28T01:31:49.514Z,44.18
2019-02-28T01:34:20.598Z,43.25
2019-02-28T01:36:51.546Z,44.45
2019-02-28T01:39:22.691Z,42.23
2019-02-28T01:41:53.857Z,46.13
2019-02-28T01:44:24.875Z,43.73
2019-02-28T01:46:55.994Z,40.78
2019-02-28T01:49:27.035Z,40.43
2019-02-28T01:51:58.130Z,38.30
2019-02-28T01:54:29.278Z,38.67
2019-02-28T01:57:00.278Z,43.08
2019-02-28T01:59:31.283Z,44.70
2019-02-28T02:02:05.596Z,39.18
2019-02-28T02:04:35.076Z,44.20
2019-02-28T02:07:06.438Z,46.37
2019-02-28T02:09:37.618Z,41.37
2019-02-28T02:12:08.766Z,44.77
2019-02-28T02:14:44.825Z,47.30
2019-02-28T02:17:13.561Z,45.95
2019-02-28T02:19:44.542Z,47.27
2019-02-28T02:22:15.593Z,44.85
2019-02-28T02:24:46.742Z,40.75
2019-02-28T02:27:19.490Z,39.78
2019-02-28T02:29:50.478Z,42.00
2019-02-28T02:32:21.571Z,46.88
2019-02-28T02:34:52.634Z,45.85
2019-02-28T02:37:26.336Z,46.63
2019-02-28T02:39:56.567Z,43.75
2019-02-28T02:42:27.735Z,43.60
2019-02-28T02:44:58.885Z,47.30
2019-02-28T02:47:32.373Z,45.73
2019-02-28T02:50:05.295Z,47.80
2019-02-28T02:52:36.345Z,51.40
2019-02-28T02:55:08.173Z,55.38
2019-02-28T02:57:39.980Z,52.80
2019-02-28T03:00:16.809Z,55.92
2019-02-28T03:02:48.336Z,54.67
2019-02-28T03:05:19.487Z,51.85
2019-02-28T03:07:50.437Z,53.70
2019-02-28T03:10:21.425Z,54.50
2019-02-28T03:12:52.480Z,50.23
2019-02-28T03:15:26.904Z,48.98
2019-02-28T03:17:56.564Z,48.70
2019-02-28T03:20:27.695Z,47.98
2019-02-28T03:23:02.187Z,49.88
2019-02-28T03:25:31.443Z,51.90
2019-02-28T03:28:02.567Z,51.50
2019-02-28T03:30:33.891Z,51.85
2019-02-28T03:33:05.243Z,53.35
2019-02-28T03:35:43.404Z,56.77
2019-02-28T03:38:11.599Z,81.08
2019-02-28T03:40:41.842Z,84.37
2019-02-28T03:43:12.970Z,89.30
2019-02-28T03:45:44.059Z,103.55
2019-02-28T03:48:15.095Z,103.58
2019-02-28T03:50:46.081Z,77.80
2019-02-28T03:53:19.897Z,81.82
2019-02-28T03:55:49.892Z,76.95
2019-02-28T03:58:22.034Z,74.32
2019-02-28T04:00:53.269Z,65.20
2019-02-28T04:03:24.664Z,62.50
2019-02-28T04:06:03.024Z,66.37
2019-02-28T04:08:30.341Z,75.05
2019-02-28T04:11:01.276Z,67.12
2019-02-28T04:13:32.333Z,80.12
2019-02-28T04:16:09.150Z,126.15
2019-02-28T04:18:36.286Z,93.40
2019-02-28T04:21:10.340Z,88.55
2019-02-28T04:23:40.009Z,74.72
2019-02-28T04:26:12.454Z,76.28
2019-02-28T04:28:43.611Z,70.57
2019-02-28T04:31:18.896Z,74.45
2019-02-28T04:33:48.886Z,77.47
2019-02-28T04:36:19.863Z,79.70
2019-02-28T04:38:51.750Z,78.50
2019-02-28T04:41:23.668Z,82.80
2019-02-28T04:43:54.729Z,79.10
2019-02-28T04:46:28.282Z,81.15
2019-02-28T04:48:58.520Z,89.30
2019-02-28T04:51:29.677Z,78.97
2019-02-28T04:54:00.739Z,85.12
2019-02-28T04:56:31.901Z,85.03
2019-02-28T04:59:03.843Z,84.45
2019-02-28T05:01:34.942Z,83.72
2019-02-28T05:04:06.041Z,87.65
2019-02-28T05:06:37.157Z,103.27
2019-02-28T05:09:10.671Z,83.20
2019-02-28T05:11:40.977Z,79.05
2019-02-28T05:14:11.934Z,97.42
2019-02-28T05:16:47.180Z,85.35
2019-02-28T05:19:16.914Z,73.22
2019-02-28T05:21:50.673Z,76.72
2019-02-28T05:24:20.929Z,77.17
2019-02-28T05:26:52.042Z,68.72
2019-02-28T05:29:23.023Z,71.15
2019-02-28T05:31:54.002Z,77.45
2019-02-28T05:34:25.030Z,81.80
2019-02-28T05:36:56.683Z,87.60
2019-02-28T05:39:28.280Z,84.45
2019-02-28T05:42:00.512Z,88.45
2019-02-28T05:44:31.488Z,87.57
2019-02-28T05:47:02.676Z,77.08
2019-02-28T05:49:35.339Z,81.28
2019-02-28T05:52:06.553Z,86.78
2019-02-28T05:54:37.754Z,85.40
2019-02-28T05:57:08.931Z,88.30
2019-02-28T05:59:41.030Z,85.28
2019-02-28T06:02:12.187Z,82.90
2019-02-28T06:04:43.218Z,83.70
2019-02-28T06:07:14.381Z,82.22
2019-02-28T06:09:48.543Z,82.60
2019-02-28T06:12:18.375Z,79.45
2019-02-28T06:14:49.437Z,79.85
2019-02-28T06:17:20.637Z,85.30
2019-02-28T06:19:52.770Z,89.00
2019-02-28T06:22:23.965Z,85.38
2019-02-28T06:24:54.996Z,122.37
2019-02-28T06:27:25.998Z,108.57
2019-02-28T06:29:57.171Z,103.78
2019-02-28T06:32:28.331Z,155.48
2019-02-28T06:34:59.956Z,196.95
2019-02-28T06:37:31.112Z,159.60
2019-02-28T06:40:02.164Z,127.82
2019-02-28T06:42:33.331Z,135.65
2019-02-28T06:45:06.893Z,138.88
2019-02-28T06:47:39.055Z,126.95
2019-02-28T06:50:13.717Z,119.87
2019-02-28T06:52:44.927Z,201.90
2019-02-28T06:55:26.761Z,132.25
2019-02-28T06:57:58.907Z,113.08
2019-02-28T07:00:31.361Z,101.72
2019-02-28T07:03:03.344Z,104.63
2019-02-28T07:05:35.487Z,140.97
2019-02-28T07:08:07.630Z,145.68
2019-02-28T07:10:38.704Z,122.60
2019-02-28T07:13:11.842Z,122.82
2019-02-28T07:15:42.809Z,120.08
2019-02-28T07:18:14.001Z,131.67
2019-02-28T07:20:47.152Z,106.72
2019-02-28T07:23:17.886Z,104.60
2019-02-28T07:25:48.943Z,108.85
2019-02-28T07:28:19.990Z,97.05
2019-02-28T07:30:51.172Z,97.20
2019-02-28T07:33:22.297Z,67.65
2019-02-28T07:35:53.417Z,26.07
2019-02-28T07:38:25.553Z,27.95
2019-02-28T07:40:57.410Z,29.02
2019-02-28T07:43:28.561Z,24.95
2019-02-28T07:45:59.598Z,28.40
2019-02-28T07:48:31.965Z,13.10
2019-02-28T07:51:02.968Z,26.15
2019-02-28T07:53:34.135Z,23.40
2019-02-28T07:56:07.041Z,25.77
2019-02-28T07:58:38.094Z,25.48
2019-02-28T08:01:10.051Z,10.63
2019-02-28T08:03:43.317Z,24.95
2019-02-28T08:06:13.685Z,25.62
2019-02-28T08:08:44.742Z,22.58
2019-02-28T08:11:15.935Z,22.20
2019-02-28T08:13:46.998Z,23.35
2019-02-28T08:16:18.121Z,22.98
2019-02-28T08:18:51.131Z,18.70
2019-02-28T08:21:22.327Z,24.57
2019-02-28T08:23:53.412Z,23.98
2019-02-28T08:26:24.561Z,22.58
2019-02-28T08:28:55.622Z,23.80
2019-02-28T08:31:28.337Z,24.60
2019-02-28T08:33:59.554Z,22.82
2019-02-28T08:36:30.771Z,21.05
2019-02-28T08:39:01.926Z,15.72
2019-02-28T08:41:34.590Z,19.92
2019-02-28T08:44:05.695Z,24.23
2019-02-28T08:46:36.750Z,23.52
2019-02-28T08:49:07.841Z,13.00
2019-02-28T08:51:38.914Z,18.70
2019-02-28T08:54:10.026Z,14.07
2019-02-28T08:56:41.090Z,23.95
2019-02-28T08:59:15.402Z,14.80
2019-02-28T09:01:45.014Z,16.48
2019-02-28T09:04:16.205Z,12.55
2019-02-28T09:06:47.235Z,12.93
2019-02-28T09:09:18.318Z,13.22
2019-02-28T09:11:49.457Z,24.50
2019-02-28T09:14:20.447Z,20.37
2019-02-28T09:16:51.653Z,14.00
2019-02-28T09:19:22.750Z,15.40
2019-02-28T09:21:53.901Z,18.25
2019-02-28T09:24:26.005Z,19.57
2019-02-28T09:26:57.375Z,14.93
2019-02-28T09:29:28.455Z,17.27
2019-02-28T09:31:59.582Z,26.37
2019-02-28T09:34:31.475Z,17.75
2019-02-28T09:37:02.642Z,24.75
2019-02-28T09:39:33.735Z,25.72
2019-02-28T09:42:05.147Z,20.40
2019-02-28T09:44:36.226Z,20.50
2019-02-28T09:47:07.360Z,15.15
2019-02-28T09:49:39.828Z,20.77
2019-02-28T09:52:10.863Z,15.75
2019-02-28T09:54:42.135Z,15.45
2019-02-28T09:57:15.374Z,16.97
2019-02-28T09:59:46.093Z,18.25
2019-02-28T10:02:17.902Z,17.48
2019-02-28T10:04:48.990Z,17.25
2019-02-28T10:07:19.955Z,16.12
2019-02-28T10:09:51.098Z,16.87
2019-02-28T10:12:22.225Z,17.77
2019-02-28T10:14:53.322Z,14.07
2019-02-28T10:17:25.906Z,18.32
2019-02-28T10:19:57.622Z,16.37
2019-02-28T10:22:28.759Z,15.32
2019-02-28T10:24:59.855Z,13.83
2019-02-28T10:27:30.911Z,12.23
2019-02-28T10:30:02.067Z,15.20
2019-02-28T10:32:33.388Z,13.18
2019-02-28T10:35:05.626Z,15.00
2019-02-28T10:37:36.726Z,14.60
2019-02-28T10:40:17.937Z,17.50
2019-02-28T10:42:49.921Z,14.68
2019-02-28T10:45:22.006Z,14.20
2019-02-28T10:47:53.038Z,16.48
2019-02-28T10:50:31.933Z,11.20
2019-02-28T10:53:05.470Z,12.18
2019-02-28T10:55:34.681Z,10.63
2019-02-28T10:58:06.056Z,13.08
2019-02-28T11:00:41.141Z,13.90
2019-02-28T11:03:13.219Z,11.35
2019-02-28T11:05:46.269Z,17.87
2019-02-28T11:08:19.289Z,15.08
2019-02-28T11:10:50.664Z,11.57
2019-02-28T11:13:22.706Z,16.00
2019-02-28T11:15:54.489Z,15.88
2019-02-28T11:18:26.842Z,17.87
2019-02-28T11:20:59.282Z,14.90
2019-02-28T11:23:30.477Z,15.68
2019-02-28T11:26:02.514Z,12.25
2019-02-28T11:28:33.553Z,16.95
2019-02-28T11:31:05.086Z,15.32
2019-02-28T11:33:36.562Z,18.77
2019-02-28T11:36:09.310Z,13.53
2019-02-28T11:38:40.476Z,16.50
2019-02-28T11:41:11.670Z,13.38
2019-02-28T11:43:42.800Z,17.62
2019-02-28T11:46:14.325Z,15.38
2019-02-28T11:48:45.558Z,16.82
2019-02-28T11:51:17.620Z,20.92
2019-02-28T11:53:49.558Z,21.20
2019-02-28T11:56:20.542Z,13.55
2019-02-28T11:58:52.649Z,15.95
2019-02-28T12:01:23.826Z,14.35
2019-02-28T12:03:56.927Z,17.05
2019-02-28T12:06:28.033Z,24.25
2019-02-28T12:08:59.255Z,19.10
2019-02-28T12:11:30.419Z,17.42
2019-02-28T12:14:01.382Z,12.58
2019-02-28T12:16:32.432Z,16.35
2019-02-28T12:19:03.409Z,15.23
2019-02-28T12:21:37.602Z,21.27
2019-02-28T12:24:07.629Z,13.18
2019-02-28T12:26:38.717Z,12.28
2019-02-28T12:29:12.983Z,10.50
2019-02-28T12:31:42.538Z,18.82
2019-02-28T12:34:15.189Z,15.50
2019-02-28T12:36:48.956Z,14.05
2019-02-28T12:39:19.131Z,12.68
2019-02-28T12:41:50.281Z,18.30
2019-02-28T12:44:21.375Z,17.02
2019-02-28T12:46:52.366Z,18.82
2019-02-28T12:49:26.082Z,16.80
2019-02-28T12:51:56.290Z,17.48
2019-02-28T12:54:30.407Z,20.90
2019-02-28T12:57:00.338Z,15.15
2019-02-28T12:59:31.308Z,18.60
2019-02-28T13:02:07.500Z,14.55
2019-02-28T13:04:37.091Z,10.48
2019-02-28T13:07:08.187Z,14.95
2019-02-28T13:09:39.323Z,14.18
2019-02-28T13:12:12.144Z,18.02
2019-02-28T13:14:43.439Z,11.38
2019-02-28T13:17:16.217Z,12.55
2019-02-28T13:19:47.554Z,13.78
2019-02-28T13:22:23.270Z,13.70
2019-02-28T13:24:51.543Z,16.37
2019-02-28T13:27:22.694Z,14.70
2019-02-28T13:29:53.667Z,17.92
2019-02-28T13:32:24.857Z,13.65
2019-02-28T13:34:55.814Z,12.33
2019-02-28T13:37:26.937Z,14.50
2019-02-28T13:39:58.123Z,15.72
2019-02-28T13:42:29.293Z,12.70
2019-02-28T13:45:00.359Z,14.38
2019-02-28T13:47:31.859Z,21.33
2019-02-28T13:50:05.325Z,18.90
2019-02-28T13:52:36.742Z,15.63
2019-02-28T13:55:14.301Z,18.02
2019-02-28T13:57:45.686Z,20.62
2019-02-28T14:00:27.811Z,16.52
2019-02-28T14:03:08.795Z,19.85
2019-02-28T14:05:40.835Z,10.95
2019-02-28T14:08:12.154Z,13.30
2019-02-28T14:10:43.785Z,12.68
2019-02-28T14:13:15.157Z,11.68
2019-02-28T14:15:52.378Z,11.10
2019-02-28T14:18:22.192Z,15.08
2019-02-28T14:20:54.646Z,9.43
2019-02-28T14:23:26.861Z,11.25
2019-02-28T14:25:58.590Z,20.57
2019-02-28T14:28:32.401Z,11.20
2019-02-28T14:31:02.593Z,12.82
2019-02-28T14:33:33.692Z,16.55
2019-02-28T14:36:07.390Z,16.87
2019-02-28T14:38:37.734Z,7.58
2019-02-28T14:41:09.030Z,13.08
2019-02-28T14:43:40.074Z,11.25
2019-02-28T14:46:15.163Z,10.95
2019-02-28T14:48:45.072Z,11.83
2019-02-28T14:51:16.450Z,11.50
2019-02-28T14:53:49.224Z,10.90
2019-02-28T14:56:20.547Z,15.08
2019-02-28T14:58:54.532Z,12.70
2019-02-28T15:01:25.515Z,12.82
2019-02-28T15:03:56.582Z,12.47
2019-02-28T15:06:29.612Z,15.70
2019-02-28T15:09:00.695Z,15.23
2019-02-28T15:11:33.390Z,10.10
2019-02-28T15:14:05.608Z,15.90
2019-02-28T15:16:37.525Z,13.68
2019-02-28T15:19:08.824Z,11.50
2019-02-28T15:21:42.740Z,14.38
2019-02-28T15:24:13.546Z,11.93
2019-02-28T15:26:44.611Z,17.57
2019-02-28T15:29:15.598Z,16.60
2019-02-28T15:31:46.663Z,17.95
2019-02-28T15:34:17.822Z,12.78
2019-02-28T15:36:48.950Z,10.68
2019-02-28T15:39:23.465Z,18.73
2019-02-28T15:41:54.321Z,13.83
2019-02-28T15:44:25.575Z,13.38
2019-02-28T15:46:59.164Z,15.05
2019-02-28T15:49:30.247Z,16.07
2019-02-28T15:52:01.910Z,15.85
2019-02-28T15:54:34.243Z,15.45
2019-02-28T15:57:05.441Z,18.80
2019-02-28T15:59:36.594Z,17.45
2019-02-28T16:02:07.795Z,17.48
2019-02-28T16:04:38.890Z,14.83
2019-02-28T16:07:10.186Z,18.57
2019-02-28T16:09:41.163Z,14.60
2019-02-28T16:12:15.120Z,19.73
2019-02-28T16:14:47.134Z,18.90
2019-02-28T16:17:18.230Z,22.73
2019-02-28T16:19:49.384Z,18.23
2019-02-28T16:22:20.416Z,18.17
2019-02-28T16:24:51.583Z,23.02
2019-02-28T16:27:22.829Z,13.80
2019-02-28T16:29:55.607Z,22.10
2019-02-28T16:32:27.730Z,17.32
2019-02-28T16:34:58.817Z,19.55
2019-02-28T16:37:32.265Z,20.85
2019-02-28T16:40:02.940Z,18.65
2019-02-28T16:42:34.870Z,27.73
2019-02-28T16:45:13.306Z,25.23
2019-02-28T16:47:44.375Z,16.30
2019-02-28T16:50:18.767Z,20.32
2019-02-28T16:52:48.282Z,15.68
2019-02-28T16:55:19.806Z,14.87
2019-02-28T16:57:50.858Z,20.95
2019-02-28T17:00:23.490Z,16.10
2019-02-28T17:02:54.515Z,20.75
2019-02-28T17:05:27.898Z,21.87
2019-02-28T17:07:58.997Z,23.80
2019-02-28T17:10:31.717Z,17.77
2019-02-28T17:13:10.334Z,19.98
2019-02-28T17:15:46.043Z,21.68
2019-02-28T17:18:21.487Z,27.27
2019-02-28T17:20:51.558Z,19.12
2019-02-28T17:23:22.557Z,25.65
2019-02-28T17:25:56.469Z,19.23
2019-02-28T17:28:41.008Z,23.47
2019-02-28T17:31:25.795Z,15.93
2019-02-28T17:33:57.089Z,20.88
2019-02-28T17:36:29.671Z,20.80
2019-02-28T17:39:00.865Z,12.35
2019-02-28T17:41:36.961Z,17.98
2019-02-28T17:44:18.203Z,20.02
2019-02-28T17:46:52.510Z,17.80
2019-02-28T17:49:55.488Z,23.15
2019-02-28T17:52:35.287Z,18.50
2019-02-28T17:55:18.001Z,25.88
2019-02-28T17:57:57.974Z,18.77
2019-02-28T18:00:51.780Z,19.10
2019-02-28T18:03:28.016Z,29.15
2019-02-28T18:06:29.405Z,36.98
2019-02-28T18:09:25.007Z,35.15
2019-02-28T18:12:05.896Z,21.00
2019-02-28T18:14:46.476Z,22.82
2019-02-28T18:17:45.152Z,27.62
2019-02-28T18:20:32.280Z,29.90
2019-02-28T18:23:12.494Z,34.30
2019-02-28T18:26:03.202Z,27.48
2019-02-28T18:28:54.901Z,24.75
2019-02-28T18:31:25.283Z,19.25
2019-02-28T18:33:58.449Z,27.67
2019-02-28T18:36:31.045Z,26.05
2019-02-28T18:39:02.085Z,22.50
2019-02-28T18:41:34.927Z,28.07
2019-02-28T18:44:07.664Z,34.50
2019-02-28T18:46:39.989Z,27.30
2019-02-28T18:49:11.116Z,25.23
2019-02-28T18:51:42.363Z,30.02
2019-02-28T18:54:13.410Z,21.52
2019-02-28T18:56:44.487Z,21.97
2019-02-28T18:59:15.666Z,25.45
2019-02-28T19:01:46.889Z,20.65
2019-02-28T19:04:18.014Z,32.85
2019-02-28T19:06:49.185Z,25.65
2019-02-28T19:09:22.323Z,30.10
2019-02-28T19:11:53.668Z,23.27
2019-02-28T19:14:24.954Z,20.08
2019-02-28T19:16:56.050Z,23.73
2019-02-28T19:19:27.316Z,21.40
2019-02-28T19:21:58.634Z,29.52
2019-02-28T19:24:29.763Z,27.85
2019-02-28T19:27:00.754Z,25.20
2019-02-28T19:29:31.906Z,24.87
2019-02-28T19:32:03.072Z,20.82
2019-02-28T19:34:34.228Z,21.15
2019-02-28T19:37:05.310Z,20.95
2019-02-28T19:39:36.438Z,24.12
2019-02-28T19:42:07.575Z,18.85
2019-02-28T19:44:38.789Z,24.67
2019-02-28T19:47:09.918Z,36.15
2019-02-28T19:49:40.932Z,25.85
2019-02-28T19:52:12.116Z,17.87
2019-02-28T19:54:43.073Z,23.95
2019-02-28T19:57:15.229Z,20.60
2019-02-28T19:59:46.331Z,22.40
2019-02-28T20:02:17.547Z,22.58
2019-02-28T20:04:48.675Z,23.77
2019-02-28T20:07:19.762Z,19.30
2019-02-28T20:09:51.195Z,18.85
2019-02-28T20:12:22.492Z,19.10
2019-02-28T20:14:53.681Z,21.30
2019-02-28T20:17:25.034Z,18.20
2019-02-28T20:19:56.229Z,28.52
2019-02-28T20:22:27.219Z,26.93
2019-02-28T20:24:58.179Z,23.80
2019-02-28T20:27:29.329Z,24.15
2019-02-28T20:30:00.392Z,20.92
2019-02-28T20:32:31.536Z,18.87
2019-02-28T20:35:02.762Z,21.73
2019-02-28T20:37:35.802Z,21.27
2019-02-28T20:40:10.234Z,20.75
2019-02-28T20:42:41.449Z,17.15
2019-02-28T20:45:13.130Z,15.35
2019-02-28T20:47:45.642Z,19.40
2019-02-28T20:50:28.528Z,15.90
2019-02-28T20:53:00.189Z,14.58
2019-02-28T20:55:31.319Z,17.82
2019-02-28T20:58:02.286Z,12.18
2019-02-28T21:00:34.283Z,15.50
2019-02-28T21:03:05.581Z,18.27
2019-02-28T21:05:37.804Z,18.10
2019-02-28T21:08:09.155Z,14.40
2019-02-28T21:10:41.251Z,15.98
2019-02-28T21:13:12.577Z,15.75
2019-02-28T21:15:43.769Z,14.80
2019-02-28T21:18:14.961Z,14.83
2019-02-28T21:20:47.463Z,16.00
2019-02-28T21:23:18.457Z,18.10
2019-02-28T21:25:49.674Z,19.35
2019-02-28T21:28:20.846Z,23.12
2019-02-28T21:30:51.966Z,19.75
2019-02-28T21:33:23.050Z,17.80
2019-02-28T21:35:54.267Z,16.32
2019-02-28T21:38:25.499Z,19.40
2019-02-28T21:40:56.723Z,16.52
2019-02-28T21:43:28.043Z,27.15
2019-02-28T21:45:59.369Z,17.60
2019-02-28T21:48:30.589Z,13.62
2019-02-28T21:51:02.855Z,21.50
2019-02-28T21:53:34.035Z,18.42
2019-02-28T21:56:05.254Z,12.95
2019-02-28T21:58:36.344Z,15.25
2019-02-28T22:01:07.538Z,11.08
2019-02-28T22:03:38.594Z,13.88
2019-02-28T22:06:09.723Z,17.57
2019-02-28T22:08:40.942Z,20.00
2019-02-28T22:11:12.221Z,15.10
2019-02-28T22:13:43.314Z,18.90
2019-02-28T22:16:14.440Z,27.35
2019-02-28T22:18:45.638Z,16.40
2019-02-28T22:21:16.837Z,25.20
2019-02-28T22:23:47.819Z,13.50
2019-02-28T22:26:18.886Z,21.60
2019-02-28T22:28:49.972Z,20.97
2019-02-28T22:31:26.539Z,13.70
2019-02-28T22:34:11.186Z,16.73
2019-02-28T22:36:42.919Z,30.17
2019-02-28T22:39:14.041Z,31.10
2019-02-28T22:41:45.211Z,30.57
2019-02-28T22:44:16.399Z,33.67
2019-02-28T22:46:47.521Z,17.35
2019-02-28T22:49:18.705Z,23.67
2019-02-28T22:51:49.833Z,23.10
2019-02-28T22:54:20.921Z,32.55
2019-02-28T22:56:51.975Z,21.00
2019-02-28T22:59:23.059Z,29.23
2019-02-28T23:01:54.550Z,26.70
2019-02-28T23:04:27.957Z,26.65
2019-02-28T23:06:59.010Z,35.30
2019-02-28T23:09:30.087Z,28.27
2019-02-28T23:12:02.002Z,18.80
2019-02-28T23:14:33.083Z,22.20
2019-02-28T23:17:04.177Z,19.85
2019-02-28T23:19:35.266Z,18.40
2019-02-28T23:22:06.323Z,21.82
2019-02-28T23:24:37.389Z,27.07
2019-02-28T23:27:16.331Z,21.77
2019-02-28T23:29:50.470Z,17.77
2019-02-28T23:32:39.959Z,28.77
2019-02-28T23:35:18.906Z,16.12
2019-02-28T23:37:49.854Z,23.92
2019-02-28T23:40:20.846Z,16.48
2019-02-28T23:42:51.897Z,19.00
2019-02-28T23:45:22.982Z,17.82
2019-02-28T23:47:54.148Z,18.87
2019-02-28T23:50:25.465Z,33.92
2019-02-28T23:52:56.419Z,29.60
2019-02-28T23:55:27.473Z,20.92
2019-02-28T23:57:58.530Z,30.00
